sensor_id;sensor_type;location;lat;lon;timestamp;P1;durP1;ratioP1;P2;durP2;ratioP2
14681;SDS011;7429;52.498;13.480;2023-05-16T00:03:01;13.33;;;11.97;;
14681;SDS011;7429;52.498;13.480;2023-05-16T00:06:05;12.17;;;11.07;;
14681;SDS011;7429;52.498;13.480;2023-05-16T00:09:08;13.73;;;11.60;;
14681;SDS011;7429;52.498;13.480;2023-05-16T00:12:11;13.17;;;11.93;;
14681;SDS011;7429;52.498;13.480;2023-05-16T00:15:14;13.20;;;12.00;;
14681;SDS011;7429;52.498;13.480;2023-05-16T00:18:19;16.47;;;11.03;;
14681;SDS011;7429;52.498;13.480;2023-05-16T00:21:23;14.33;;;12.03;;
14681;SDS011;7429;52.498;13.480;2023-05-16T00:24:26;13.20;;;12.00;;
14681;SDS011;7429;52.498;13.480;2023-05-16T00:27:29;14.60;;;12.47;;
14681;SDS011;7429;52.498;13.480;2023-05-16T00:30:32;13.43;;;12.17;;
14681;SDS011;7429;52.498;13.480;2023-05-16T00:33:37;16.03;;;13.33;;
14681;SDS011;7429;52.498;13.480;2023-05-16T00:36:40;15.20;;;13.60;;
14681;SDS011;7429;52.498;13.480;2023-05-16T00:39:43;15.00;;;13.60;;
14681;SDS011;7429;52.498;13.480;2023-05-16T00:42:46;16.50;;;15.00;;
14681;SDS011;7429;52.498;13.480;2023-05-16T00:45:49;17.90;;;15.50;;
14681;SDS011;7429;52.498;13.480;2023-05-16T00:48:54;17.33;;;15.57;;
14681;SDS011;7429;52.498;13.480;2023-05-16T00:51:57;18.80;;;17.00;;
14681;SDS011;7429;52.498;13.480;2023-05-16T00:55:03;19.33;;;17.63;;
14681;SDS011;7429;52.498;13.480;2023-05-16T00:58:08;16.93;;;15.13;;
14681;SDS011;7429;52.498;13.480;2023-05-16T01:01:12;20.90;;;16.77;;
14681;SDS011;7429;52.498;13.480;2023-05-16T01:04:17;21.93;;;16.63;;
14681;SDS011;7429;52.498;13.480;2023-05-16T01:07:20;17.50;;;15.73;;
14681;SDS011;7429;52.498;13.480;2023-05-16T01:10:24;18.73;;;16.83;;
14681;SDS011;7429;52.498;13.480;2023-05-16T01:13:36;20.07;;;17.97;;
14681;SDS011;7429;52.498;13.480;2023-05-16T01:16:49;19.87;;;17.37;;
14681;SDS011;7429;52.498;13.480;2023-05-16T01:20:06;22.17;;;18.53;;
14681;SDS011;7429;52.498;13.480;2023-05-16T01:23:18;21.10;;;18.87;;
14681;SDS011;7429;52.498;13.480;2023-05-16T01:26:34;24.33;;;20.10;;
14681;SDS011;7429;52.498;13.480;2023-05-16T01:29:39;24.77;;;21.33;;
14681;SDS011;7429;52.498;13.480;2023-05-16T01:32:43;23.37;;;20.77;;
14681;SDS011;7429;52.498;13.480;2023-05-16T01:35:50;24.10;;;21.13;;
14681;SDS011;7429;52.498;13.480;2023-05-16T01:39:01;25.67;;;22.83;;
14681;SDS011;7429;52.498;13.480;2023-05-16T01:42:13;27.23;;;24.17;;
14681;SDS011;7429;52.498;13.480;2023-05-16T01:45:19;26.23;;;23.43;;
14681;SDS011;7429;52.498;13.480;2023-05-16T01:48:29;31.67;;;26.03;;
14681;SDS011;7429;52.498;13.480;2023-05-16T01:51:37;28.93;;;25.80;;
14681;SDS011;7429;52.498;13.480;2023-05-16T01:54:43;29.70;;;26.57;;
14681;SDS011;7429;52.498;13.480;2023-05-16T01:57:51;34.73;;;29.73;;
14681;SDS011;7429;52.498;13.480;2023-05-16T02:00:58;31.30;;;28.07;;
14681;SDS011;7429;52.498;13.480;2023-05-16T02:04:04;24.20;;;21.60;;
14681;SDS011;7429;52.498;13.480;2023-05-16T02:07:09;28.10;;;22.43;;
14681;SDS011;7429;52.498;13.480;2023-05-16T02:10:12;24.70;;;21.13;;
14681;SDS011;7429;52.498;13.480;2023-05-16T02:13:16;24.40;;;20.70;;
14681;SDS011;7429;52.498;13.480;2023-05-16T02:16:20;22.73;;;20.33;;
14681;SDS011;7429;52.498;13.480;2023-05-16T02:19:23;25.87;;;21.73;;
14681;SDS011;7429;52.498;13.480;2023-05-16T02:22:26;29.60;;;22.80;;
14681;SDS011;7429;52.498;13.480;2023-05-16T02:25:29;24.93;;;20.77;;
14681;SDS011;7429;52.498;13.480;2023-05-16T02:28:33;28.90;;;20.70;;
14681;SDS011;7429;52.498;13.480;2023-05-16T02:31:37;24.90;;;20.87;;
14681;SDS011;7429;52.498;13.480;2023-05-16T02:34:40;26.60;;;20.87;;
14681;SDS011;7429;52.498;13.480;2023-05-16T02:37:43;24.97;;;20.10;;
14681;SDS011;7429;52.498;13.480;2023-05-16T02:40:46;28.90;;;22.17;;
14681;SDS011;7429;52.498;13.480;2023-05-16T02:43:51;24.87;;;20.60;;
14681;SDS011;7429;52.498;13.480;2023-05-16T02:46:54;24.63;;;21.03;;
14681;SDS011;7429;52.498;13.480;2023-05-16T02:49:57;26.47;;;20.87;;
14681;SDS011;7429;52.498;13.480;2023-05-16T02:53:01;26.87;;;22.43;;
14681;SDS011;7429;52.498;13.480;2023-05-16T02:56:04;28.50;;;20.87;;
14681;SDS011;7429;52.498;13.480;2023-05-16T02:59:10;25.13;;;21.90;;
14681;SDS011;7429;52.498;13.480;2023-05-16T03:02:14;26.23;;;22.00;;
14681;SDS011;7429;52.498;13.480;2023-05-16T03:05:17;23.53;;;20.73;;
14681;SDS011;7429;52.498;13.480;2023-05-16T03:08:20;23.13;;;19.50;;
14681;SDS011;7429;52.498;13.480;2023-05-16T03:11:23;25.53;;;21.13;;
14681;SDS011;7429;52.498;13.480;2023-05-16T03:18:20;25.17;;;21.80;;
14681;SDS011;7429;52.498;13.480;2023-05-16T03:21:23;25.23;;;20.63;;
14681;SDS011;7429;52.498;13.480;2023-05-16T03:24:26;25.20;;;21.17;;
14681;SDS011;7429;52.498;13.480;2023-05-16T03:27:29;30.17;;;22.53;;
14681;SDS011;7429;52.498;13.480;2023-05-16T03:30:34;25.83;;;23.13;;
14681;SDS011;7429;52.498;13.480;2023-05-16T03:33:37;29.30;;;21.80;;
14681;SDS011;7429;52.498;13.480;2023-05-16T03:36:41;24.33;;;21.73;;
14681;SDS011;7429;52.498;13.480;2023-05-16T03:39:44;27.27;;;21.37;;
14681;SDS011;7429;52.498;13.480;2023-05-16T03:42:47;28.27;;;21.20;;
14681;SDS011;7429;52.498;13.480;2023-05-16T03:45:52;28.50;;;21.47;;
14681;SDS011;7429;52.498;13.480;2023-05-16T03:48:55;29.37;;;24.00;;
14681;SDS011;7429;52.498;13.480;2023-05-16T03:51:58;29.80;;;22.73;;
14681;SDS011;7429;52.498;13.480;2023-05-16T03:55:01;27.97;;;21.57;;
14681;SDS011;7429;52.498;13.480;2023-05-16T03:58:06;32.67;;;24.60;;
14681;SDS011;7429;52.498;13.480;2023-05-16T04:01:10;32.67;;;25.53;;
14681;SDS011;7429;52.498;13.480;2023-05-16T04:04:13;28.97;;;25.70;;
14681;SDS011;7429;52.498;13.480;2023-05-16T04:07:16;31.33;;;24.70;;
14681;SDS011;7429;52.498;13.480;2023-05-16T04:10:23;29.07;;;23.80;;
14681;SDS011;7429;52.498;13.480;2023-05-16T04:13:26;30.40;;;23.57;;
14681;SDS011;7429;52.498;13.480;2023-05-16T04:16:30;31.23;;;26.10;;
14681;SDS011;7429;52.498;13.480;2023-05-16T04:19:33;31.30;;;23.43;;
14681;SDS011;7429;52.498;13.480;2023-05-16T04:22:39;27.03;;;22.13;;
14681;SDS011;7429;52.498;13.480;2023-05-16T04:25:43;32.83;;;23.30;;
14681;SDS011;7429;52.498;13.480;2023-05-16T04:28:46;29.60;;;22.77;;
14681;SDS011;7429;52.498;13.480;2023-05-16T04:31:52;35.00;;;24.60;;
14681;SDS011;7429;52.498;13.480;2023-05-16T04:34:55;30.23;;;23.17;;
14681;SDS011;7429;52.498;13.480;2023-05-16T04:37:58;29.63;;;24.37;;
14681;SDS011;7429;52.498;13.480;2023-05-16T04:41:02;30.13;;;25.30;;
14681;SDS011;7429;52.498;13.480;2023-05-16T04:44:05;32.43;;;25.97;;
14681;SDS011;7429;52.498;13.480;2023-05-16T04:47:10;32.53;;;26.80;;
14681;SDS011;7429;52.498;13.480;2023-05-16T04:50:13;32.40;;;26.90;;
14681;SDS011;7429;52.498;13.480;2023-05-16T04:53:18;34.27;;;27.73;;
14681;SDS011;7429;52.498;13.480;2023-05-16T04:56:21;36.40;;;28.47;;
14681;SDS011;7429;52.498;13.480;2023-05-16T04:59:24;31.20;;;25.57;;
14681;SDS011;7429;52.498;13.480;2023-05-16T05:02:28;38.97;;;26.73;;
14681;SDS011;7429;52.498;13.480;2023-05-16T05:05:32;33.40;;;25.87;;
14681;SDS011;7429;52.498;13.480;2023-05-16T05:08:36;33.47;;;27.20;;
14681;SDS011;7429;52.498;13.480;2023-05-16T05:11:39;41.70;;;27.97;;
14681;SDS011;7429;52.498;13.480;2023-05-16T05:14:42;35.23;;;27.47;;
14681;SDS011;7429;52.498;13.480;2023-05-16T05:17:47;35.07;;;27.97;;
14681;SDS011;7429;52.498;13.480;2023-05-16T05:20:50;40.03;;;29.77;;
14681;SDS011;7429;52.498;13.480;2023-05-16T05:23:57;39.50;;;29.33;;
14681;SDS011;7429;52.498;13.480;2023-05-16T05:27:03;39.73;;;27.33;;
14681;SDS011;7429;52.498;13.480;2023-05-16T05:30:07;35.77;;;30.23;;
14681;SDS011;7429;52.498;13.480;2023-05-16T05:33:13;34.43;;;27.93;;
14681;SDS011;7429;52.498;13.480;2023-05-16T05:36:19;35.53;;;25.77;;
14681;SDS011;7429;52.498;13.480;2023-05-16T05:39:22;35.27;;;24.10;;
14681;SDS011;7429;52.498;13.480;2023-05-16T05:42:29;37.90;;;24.60;;
14681;SDS011;7429;52.498;13.480;2023-05-16T05:45:32;31.67;;;25.13;;
14681;SDS011;7429;52.498;13.480;2023-05-16T05:48:36;33.30;;;27.07;;
14681;SDS011;7429;52.498;13.480;2023-05-16T05:51:39;34.67;;;26.03;;
14681;SDS011;7429;52.498;13.480;2023-05-16T05:54:42;31.50;;;23.37;;
14681;SDS011;7429;52.498;13.480;2023-05-16T05:57:45;37.47;;;25.87;;
14681;SDS011;7429;52.498;13.480;2023-05-16T06:00:49;30.50;;;25.67;;
14681;SDS011;7429;52.498;13.480;2023-05-16T06:03:53;30.53;;;23.37;;
14681;SDS011;7429;52.498;13.480;2023-05-16T06:06:58;28.40;;;23.17;;
14681;SDS011;7429;52.498;13.480;2023-05-16T06:10:02;24.97;;;20.20;;
14681;SDS011;7429;52.498;13.480;2023-05-16T06:13:06;25.40;;;19.13;;
14681;SDS011;7429;52.498;13.480;2023-05-16T06:16:09;23.17;;;20.07;;
14681;SDS011;7429;52.498;13.480;2023-05-16T06:19:14;22.30;;;18.80;;
14681;SDS011;7429;52.498;13.480;2023-05-16T06:22:17;23.43;;;15.80;;
14681;SDS011;7429;52.498;13.480;2023-05-16T06:25:20;19.10;;;16.10;;
14681;SDS011;7429;52.498;13.480;2023-05-16T06:28:23;27.00;;;17.33;;
14681;SDS011;7429;52.498;13.480;2023-05-16T06:31:27;24.60;;;16.90;;
14681;SDS011;7429;52.498;13.480;2023-05-16T06:50:38;19.70;;;13.83;;
14681;SDS011;7429;52.498;13.480;2023-05-16T06:53:41;17.73;;;12.47;;
14681;SDS011;7429;52.498;13.480;2023-05-16T06:56:44;17.83;;;13.57;;
14681;SDS011;7429;52.498;13.480;2023-05-16T06:59:47;18.33;;;13.07;;
14681;SDS011;7429;52.498;13.480;2023-05-16T07:02:51;14.93;;;13.33;;
14681;SDS011;7429;52.498;13.480;2023-05-16T07:05:55;21.67;;;12.90;;
14681;SDS011;7429;52.498;13.480;2023-05-16T07:08:59;17.37;;;12.10;;
14681;SDS011;7429;52.498;13.480;2023-05-16T07:12:03;19.80;;;12.67;;
14681;SDS011;7429;52.498;13.480;2023-05-16T07:15:07;15.27;;;12.10;;
14681;SDS011;7429;52.498;13.480;2023-05-16T07:18:12;15.63;;;12.27;;
14681;SDS011;7429;52.498;13.480;2023-05-16T07:21:17;21.00;;;10.77;;
14681;SDS011;7429;52.498;13.480;2023-05-16T07:24:21;16.53;;;11.50;;
14681;SDS011;7429;52.498;13.480;2023-05-16T07:27:24;15.57;;;11.07;;
14681;SDS011;7429;52.498;13.480;2023-05-16T07:30:27;14.20;;;11.17;;
14681;SDS011;7429;52.498;13.480;2023-05-16T07:33:31;11.77;;;10.57;;
14681;SDS011;7429;52.498;13.480;2023-05-16T07:36:35;25.20;;;10.93;;
14681;SDS011;7429;52.498;13.480;2023-05-16T07:39:39;17.93;;;10.73;;
14681;SDS011;7429;52.498;13.480;2023-05-16T07:42:42;17.63;;;11.13;;
14681;SDS011;7429;52.498;13.480;2023-05-16T07:45:45;16.60;;;12.10;;
14681;SDS011;7429;52.498;13.480;2023-05-16T07:48:48;10.70;;;9.70;;
14681;SDS011;7429;52.498;13.480;2023-05-16T07:51:55;10.20;;;9.07;;
14681;SDS011;7429;52.498;13.480;2023-05-16T07:54:58;14.67;;;9.57;;
14681;SDS011;7429;52.498;13.480;2023-05-16T07:58:04;14.00;;;8.73;;
14681;SDS011;7429;52.498;13.480;2023-05-16T08:01:07;12.10;;;8.23;;
14681;SDS011;7429;52.498;13.480;2023-05-16T08:04:10;13.30;;;8.03;;
14681;SDS011;7429;52.498;13.480;2023-05-16T08:07:17;9.33;;;8.17;;
14681;SDS011;7429;52.498;13.480;2023-05-16T08:10:20;14.97;;;8.27;;
14681;SDS011;7429;52.498;13.480;2023-05-16T08:13:25;10.83;;;7.20;;
14681;SDS011;7429;52.498;13.480;2023-05-16T08:16:28;14.57;;;8.60;;
14681;SDS011;7429;52.498;13.480;2023-05-16T08:19:31;7.57;;;6.87;;
14681;SDS011;7429;52.498;13.480;2023-05-16T08:22:37;11.30;;;8.23;;
14681;SDS011;7429;52.498;13.480;2023-05-16T08:25:41;8.20;;;6.90;;
14681;SDS011;7429;52.498;13.480;2023-05-16T08:28:44;10.73;;;7.47;;
14681;SDS011;7429;52.498;13.480;2023-05-16T08:31:47;13.90;;;7.70;;
14681;SDS011;7429;52.498;13.480;2023-05-16T08:34:51;8.00;;;7.10;;
14681;SDS011;7429;52.498;13.480;2023-05-16T08:37:55;9.40;;;6.70;;
14681;SDS011;7429;52.498;13.480;2023-05-16T08:40:58;7.87;;;6.77;;
14681;SDS011;7429;52.498;13.480;2023-05-16T08:44:01;9.60;;;6.97;;
14681;SDS011;7429;52.498;13.480;2023-05-16T08:47:07;8.27;;;5.93;;
14681;SDS011;7429;52.498;13.480;2023-05-16T08:50:14;9.50;;;6.00;;
14681;SDS011;7429;52.498;13.480;2023-05-16T08:53:21;9.37;;;6.27;;
14681;SDS011;7429;52.498;13.480;2023-05-16T08:56:34;9.20;;;5.43;;
14681;SDS011;7429;52.498;13.480;2023-05-16T08:59:39;8.57;;;5.23;;
14681;SDS011;7429;52.498;13.480;2023-05-16T09:02:43;6.70;;;5.67;;
14681;SDS011;7429;52.498;13.480;2023-05-16T09:05:47;10.67;;;5.33;;
14681;SDS011;7429;52.498;13.480;2023-05-16T09:08:52;12.43;;;5.53;;
14681;SDS011;7429;52.498;13.480;2023-05-16T09:12:04;8.23;;;5.83;;
14681;SDS011;7429;52.498;13.480;2023-05-16T09:15:08;5.37;;;4.87;;
14681;SDS011;7429;52.498;13.480;2023-05-16T09:18:13;11.53;;;5.23;;
14681;SDS011;7429;52.498;13.480;2023-05-16T09:21:26;8.83;;;4.77;;
14681;SDS011;7429;52.498;13.480;2023-05-16T09:35:05;6.23;;;3.83;;
14681;SDS011;7429;52.498;13.480;2023-05-16T09:38:49;11.00;;;5.20;;
14681;SDS011;7429;52.498;13.480;2023-05-16T09:41:57;8.47;;;5.70;;
14681;SDS011;7429;52.498;13.480;2023-05-16T09:49:28;7.77;;;4.70;;
14681;SDS011;7429;52.498;13.480;2023-05-16T09:53:08;10.00;;;4.47;;
14681;SDS011;7429;52.498;13.480;2023-05-16T09:56:31;5.30;;;4.77;;
14681;SDS011;7429;52.498;13.480;2023-05-16T09:59:44;5.37;;;4.57;;
14681;SDS011;7429;52.498;13.480;2023-05-16T10:03:18;6.77;;;4.47;;
14681;SDS011;7429;52.498;13.480;2023-05-16T10:06:35;6.83;;;4.37;;
14681;SDS011;7429;52.498;13.480;2023-05-16T10:10:15;8.53;;;4.13;;
14681;SDS011;7429;52.498;13.480;2023-05-16T10:13:21;5.70;;;4.10;;
14681;SDS011;7429;52.498;13.480;2023-05-16T10:16:40;9.47;;;4.47;;
14681;SDS011;7429;52.498;13.480;2023-05-16T10:20:07;8.53;;;4.47;;
14681;SDS011;7429;52.498;13.480;2023-05-16T10:23:37;8.53;;;4.13;;
14681;SDS011;7429;52.498;13.480;2023-05-16T10:27:26;8.10;;;4.20;;
14681;SDS011;7429;52.498;13.480;2023-05-16T10:30:46;11.33;;;4.97;;
14681;SDS011;7429;52.498;13.480;2023-05-16T10:34:52;13.10;;;4.93;;
14681;SDS011;7429;52.498;13.480;2023-05-16T10:38:10;10.83;;;5.27;;
14681;SDS011;7429;52.498;13.480;2023-05-16T10:41:21;9.23;;;4.93;;
14681;SDS011;7429;52.498;13.480;2023-05-16T10:44:30;8.80;;;5.77;;
14681;SDS011;7429;52.498;13.480;2023-05-16T10:48:26;12.97;;;4.60;;
14681;SDS011;7429;52.498;13.480;2023-05-16T10:55:26;7.77;;;5.63;;
14681;SDS011;7429;52.498;13.480;2023-05-16T10:58:46;8.20;;;5.13;;
14681;SDS011;7429;52.498;13.480;2023-05-16T11:02:02;10.70;;;6.07;;
14681;SDS011;7429;52.498;13.480;2023-05-16T11:05:38;12.90;;;5.33;;
14681;SDS011;7429;52.498;13.480;2023-05-16T11:09:00;14.40;;;5.10;;
14681;SDS011;7429;52.498;13.480;2023-05-16T11:18:38;11.77;;;6.20;;
14681;SDS011;7429;52.498;13.480;2023-05-16T11:22:24;17.40;;;5.37;;
14681;SDS011;7429;52.498;13.480;2023-05-16T11:25:36;11.97;;;4.83;;
14681;SDS011;7429;52.498;13.480;2023-05-16T11:28:42;7.23;;;4.70;;
14681;SDS011;7429;52.498;13.480;2023-05-16T11:31:51;11.27;;;4.70;;
14681;SDS011;7429;52.498;13.480;2023-05-16T11:34:57;17.93;;;5.03;;
14681;SDS011;7429;52.498;13.480;2023-05-16T11:38:00;12.53;;;5.20;;
14681;SDS011;7429;52.498;13.480;2023-05-16T11:41:05;13.23;;;5.03;;
14681;SDS011;7429;52.498;13.480;2023-05-16T11:44:10;11.73;;;5.07;;
14681;SDS011;7429;52.498;13.480;2023-05-16T11:47:18;15.33;;;4.40;;
14681;SDS011;7429;52.498;13.480;2023-05-16T11:50:22;14.53;;;4.70;;
14681;SDS011;7429;52.498;13.480;2023-05-16T11:53:25;17.40;;;4.73;;
14681;SDS011;7429;52.498;13.480;2023-05-16T11:56:32;11.80;;;5.07;;
14681;SDS011;7429;52.498;13.480;2023-05-16T11:59:37;9.73;;;4.90;;
14681;SDS011;7429;52.498;13.480;2023-05-16T12:02:40;10.93;;;4.13;;
14681;SDS011;7429;52.498;13.480;2023-05-16T12:05:48;9.80;;;4.03;;
14681;SDS011;7429;52.498;13.480;2023-05-16T12:08:55;8.77;;;4.50;;
14681;SDS011;7429;52.498;13.480;2023-05-16T12:12:02;6.57;;;3.67;;
14681;SDS011;7429;52.498;13.480;2023-05-16T12:15:08;13.17;;;4.60;;
14681;SDS011;7429;52.498;13.480;2023-05-16T12:18:12;11.47;;;4.37;;
14681;SDS011;7429;52.498;13.480;2023-05-16T12:21:17;8.30;;;4.10;;
14681;SDS011;7429;52.498;13.480;2023-05-16T12:24:20;10.53;;;5.10;;
14681;SDS011;7429;52.498;13.480;2023-05-16T12:27:32;12.13;;;4.30;;
14681;SDS011;7429;52.498;13.480;2023-05-16T12:30:35;13.17;;;4.27;;
14681;SDS011;7429;52.498;13.480;2023-05-16T12:33:43;11.63;;;5.00;;
14681;SDS011;7429;52.498;13.480;2023-05-16T12:36:49;16.87;;;4.17;;
14681;SDS011;7429;52.498;13.480;2023-05-16T12:39:58;15.93;;;3.83;;
14681;SDS011;7429;52.498;13.480;2023-05-16T12:43:03;10.30;;;4.23;;
14681;SDS011;7429;52.498;13.480;2023-05-16T12:46:14;8.43;;;4.27;;
14681;SDS011;7429;52.498;13.480;2023-05-16T12:49:18;10.20;;;3.90;;
14681;SDS011;7429;52.498;13.480;2023-05-16T12:52:24;11.17;;;5.13;;
14681;SDS011;7429;52.498;13.480;2023-05-16T12:55:30;11.57;;;4.03;;
14681;SDS011;7429;52.498;13.480;2023-05-16T12:58:35;11.93;;;4.40;;
14681;SDS011;7429;52.498;13.480;2023-05-16T13:01:38;19.73;;;4.93;;
14681;SDS011;7429;52.498;13.480;2023-05-16T13:04:42;13.87;;;4.73;;
14681;SDS011;7429;52.498;13.480;2023-05-16T13:07:45;10.93;;;3.75;;
14681;SDS011;7429;52.498;13.480;2023-05-16T13:10:48;11.60;;;4.78;;
14681;SDS011;7429;52.498;13.480;2023-05-16T13:13:53;10.13;;;4.03;;
14681;SDS011;7429;52.498;13.480;2023-05-16T13:16:57;12.13;;;4.68;;
14681;SDS011;7429;52.498;13.480;2023-05-16T13:20:01;9.45;;;4.32;;
14681;SDS011;7429;52.498;13.480;2023-05-16T13:23:08;9.25;;;3.78;;
14681;SDS011;7429;52.498;13.480;2023-05-16T13:26:11;7.72;;;3.33;;
14681;SDS011;7429;52.498;13.480;2023-05-16T13:29:16;14.32;;;4.47;;
14681;SDS011;7429;52.498;13.480;2023-05-16T13:32:19;11.15;;;3.72;;
14681;SDS011;7429;52.498;13.480;2023-05-16T13:35:23;9.57;;;3.78;;
14681;SDS011;7429;52.498;13.480;2023-05-16T13:38:27;8.73;;;3.85;;
14681;SDS011;7429;52.498;13.480;2023-05-16T13:41:30;8.73;;;3.30;;
14681;SDS011;7429;52.498;13.480;2023-05-16T13:44:39;9.75;;;3.83;;
14681;SDS011;7429;52.498;13.480;2023-05-16T13:47:45;13.70;;;4.18;;
14681;SDS011;7429;52.498;13.480;2023-05-16T13:50:48;9.30;;;3.83;;
14681;SDS011;7429;52.498;13.480;2023-05-16T13:53:52;10.98;;;3.30;;
14681;SDS011;7429;52.498;13.480;2023-05-16T13:56:55;20.13;;;3.65;;
14681;SDS011;7429;52.498;13.480;2023-05-16T14:00:00;10.73;;;4.10;;
14681;SDS011;7429;52.498;13.480;2023-05-16T14:03:25;12.75;;;3.55;;
14681;SDS011;7429;52.498;13.480;2023-05-16T14:06:28;12.50;;;3.70;;
14681;SDS011;7429;52.498;13.480;2023-05-16T14:09:35;8.15;;;3.08;;
14681;SDS011;7429;52.498;13.480;2023-05-16T14:12:39;15.85;;;3.92;;
14681;SDS011;7429;52.498;13.480;2023-05-16T14:15:44;8.63;;;2.90;;
14681;SDS011;7429;52.498;13.480;2023-05-16T14:18:48;9.45;;;2.58;;
14681;SDS011;7429;52.498;13.480;2023-05-16T14:21:52;5.30;;;2.72;;
14681;SDS011;7429;52.498;13.480;2023-05-16T14:24:55;15.27;;;3.67;;
14681;SDS011;7429;52.498;13.480;2023-05-16T14:28:02;8.10;;;2.95;;
14681;SDS011;7429;52.498;13.480;2023-05-16T14:31:06;10.20;;;3.17;;
14681;SDS011;7429;52.498;13.480;2023-05-16T14:34:10;13.43;;;3.50;;
14681;SDS011;7429;52.498;13.480;2023-05-16T14:37:16;8.55;;;3.00;;
14681;SDS011;7429;52.498;13.480;2023-05-16T14:40:20;8.57;;;3.30;;
14681;SDS011;7429;52.498;13.480;2023-05-16T14:43:23;10.77;;;3.35;;
14681;SDS011;7429;52.498;13.480;2023-05-16T14:46:28;9.10;;;2.88;;
14681;SDS011;7429;52.498;13.480;2023-05-16T14:49:33;5.45;;;3.08;;
14681;SDS011;7429;52.498;13.480;2023-05-16T14:52:44;11.48;;;3.30;;
14681;SDS011;7429;52.498;13.480;2023-05-16T14:55:47;7.28;;;3.13;;
14681;SDS011;7429;52.498;13.480;2023-05-16T14:58:53;9.82;;;2.90;;
14681;SDS011;7429;52.498;13.480;2023-05-16T15:01:58;5.03;;;2.85;;
14681;SDS011;7429;52.498;13.480;2023-05-16T15:05:01;9.43;;;3.20;;
14681;SDS011;7429;52.498;13.480;2023-05-16T15:08:07;14.00;;;2.95;;
14681;SDS011;7429;52.498;13.480;2023-05-16T15:11:10;8.50;;;3.67;;
14681;SDS011;7429;52.498;13.480;2023-05-16T15:14:13;6.88;;;2.78;;
14681;SDS011;7429;52.498;13.480;2023-05-16T15:17:17;9.52;;;3.15;;
14681;SDS011;7429;52.498;13.480;2023-05-16T15:20:24;9.00;;;2.83;;
14681;SDS011;7429;52.498;13.480;2023-05-16T15:23:28;7.20;;;2.63;;
14681;SDS011;7429;52.498;13.480;2023-05-16T15:26:32;10.80;;;2.85;;
14681;SDS011;7429;52.498;13.480;2023-05-16T15:29:40;7.55;;;2.63;;
14681;SDS011;7429;52.498;13.480;2023-05-16T15:32:44;6.03;;;3.05;;
14681;SDS011;7429;52.498;13.480;2023-05-16T15:35:48;14.65;;;3.40;;
14681;SDS011;7429;52.498;13.480;2023-05-16T15:38:54;7.53;;;2.63;;
14681;SDS011;7429;52.498;13.480;2023-05-16T15:41:57;10.75;;;2.70;;
14681;SDS011;7429;52.498;13.480;2023-05-16T15:45:10;12.10;;;2.30;;
14681;SDS011;7429;52.498;13.480;2023-05-16T15:48:16;7.07;;;3.00;;
14681;SDS011;7429;52.498;13.480;2023-05-16T15:51:19;7.38;;;2.97;;
14681;SDS011;7429;52.498;13.480;2023-05-16T15:54:28;6.20;;;2.63;;
14681;SDS011;7429;52.498;13.480;2023-05-16T15:57:32;5.80;;;2.63;;
14681;SDS011;7429;52.498;13.480;2023-05-16T16:00:38;7.47;;;2.90;;
14681;SDS011;7429;52.498;13.480;2023-05-16T16:03:42;4.75;;;3.05;;
14681;SDS011;7429;52.498;13.480;2023-05-16T16:06:46;6.97;;;2.92;;
14681;SDS011;7429;52.498;13.480;2023-05-16T16:09:52;6.55;;;2.67;;
14681;SDS011;7429;52.498;13.480;2023-05-16T16:12:59;4.22;;;2.72;;
14681;SDS011;7429;52.498;13.480;2023-05-16T16:16:04;8.57;;;2.83;;
14681;SDS011;7429;52.498;13.480;2023-05-16T16:19:09;5.30;;;2.60;;
14681;SDS011;7429;52.498;13.480;2023-05-16T16:22:13;10.35;;;3.50;;
14681;SDS011;7429;52.498;13.480;2023-05-16T16:25:17;6.43;;;3.53;;
14681;SDS011;7429;52.498;13.480;2023-05-16T16:28:20;6.38;;;2.90;;
14681;SDS011;7429;52.498;13.480;2023-05-16T16:31:26;6.25;;;2.80;;
14681;SDS011;7429;52.498;13.480;2023-05-16T16:34:35;9.05;;;2.70;;
14681;SDS011;7429;52.498;13.480;2023-05-16T16:37:41;6.07;;;2.70;;
14681;SDS011;7429;52.498;13.480;2023-05-16T16:41:05;8.40;;;2.70;;
14681;SDS011;7429;52.498;13.480;2023-05-16T16:44:08;9.15;;;2.85;;
14681;SDS011;7429;52.498;13.480;2023-05-16T16:47:12;12.18;;;3.13;;
14681;SDS011;7429;52.498;13.480;2023-05-16T16:50:17;7.72;;;3.10;;
14681;SDS011;7429;52.498;13.480;2023-05-16T16:53:20;5.25;;;2.88;;
14681;SDS011;7429;52.498;13.480;2023-05-16T16:56:23;8.00;;;2.85;;
14681;SDS011;7429;52.498;13.480;2023-05-16T16:59:28;6.95;;;2.97;;
14681;SDS011;7429;52.498;13.480;2023-05-16T17:02:31;6.93;;;2.38;;
14681;SDS011;7429;52.498;13.480;2023-05-16T17:05:35;4.22;;;2.30;;
14681;SDS011;7429;52.498;13.480;2023-05-16T17:08:42;6.88;;;2.80;;
14681;SDS011;7429;52.498;13.480;2023-05-16T17:11:48;5.40;;;2.08;;
14681;SDS011;7429;52.498;13.480;2023-05-16T17:14:52;5.13;;;2.15;;
14681;SDS011;7429;52.498;13.480;2023-05-16T17:17:56;6.97;;;2.45;;
14681;SDS011;7429;52.498;13.480;2023-05-16T17:21:02;6.78;;;2.78;;
14681;SDS011;7429;52.498;13.480;2023-05-16T17:24:05;7.05;;;2.42;;
14681;SDS011;7429;52.498;13.480;2023-05-16T17:27:09;7.05;;;2.50;;
14681;SDS011;7429;52.498;13.480;2023-05-16T17:30:13;10.23;;;4.68;;
14681;SDS011;7429;52.498;13.480;2023-05-16T17:33:20;8.40;;;2.65;;
14681;SDS011;7429;52.498;13.480;2023-05-16T17:36:24;14.40;;;3.00;;
14681;SDS011;7429;52.498;13.480;2023-05-16T17:39:27;10.75;;;3.10;;
14681;SDS011;7429;52.498;13.480;2023-05-16T17:42:32;8.52;;;2.53;;
14681;SDS011;7429;52.498;13.480;2023-05-16T17:45:38;3.95;;;2.53;;
14681;SDS011;7429;52.498;13.480;2023-05-16T17:48:47;6.23;;;2.77;;
14681;SDS011;7429;52.498;13.480;2023-05-16T17:51:52;13.53;;;3.20;;
14681;SDS011;7429;52.498;13.480;2023-05-16T17:54:58;4.35;;;2.40;;
14681;SDS011;7429;52.498;13.480;2023-05-16T17:58:04;7.93;;;3.17;;
14681;SDS011;7429;52.498;13.480;2023-05-16T18:01:12;7.27;;;2.60;;
14681;SDS011;7429;52.498;13.480;2023-05-16T18:04:20;13.53;;;3.07;;
14681;SDS011;7429;52.498;13.480;2023-05-16T18:07:25;12.97;;;4.07;;
14681;SDS011;7429;52.498;13.480;2023-05-16T18:10:29;5.40;;;2.60;;
14681;SDS011;7429;52.498;13.480;2023-05-16T18:13:52;9.23;;;3.00;;
14681;SDS011;7429;52.498;13.480;2023-05-16T18:18:12;8.03;;;2.87;;
14681;SDS011;7429;52.498;13.480;2023-05-16T18:21:14;7.20;;;2.87;;
14681;SDS011;7429;52.498;13.480;2023-05-16T18:25:18;10.33;;;3.53;;
14681;SDS011;7429;52.498;13.480;2023-05-16T18:28:27;6.97;;;2.57;;
14681;SDS011;7429;52.498;13.480;2023-05-16T18:31:32;4.97;;;2.70;;
14681;SDS011;7429;52.498;13.480;2023-05-16T18:34:41;8.20;;;3.20;;
14681;SDS011;7429;52.498;13.480;2023-05-16T18:37:48;11.80;;;3.50;;
14681;SDS011;7429;52.498;13.480;2023-05-16T18:40:59;8.47;;;2.73;;
14681;SDS011;7429;52.498;13.480;2023-05-16T18:44:13;14.47;;;3.40;;
14681;SDS011;7429;52.498;13.480;2023-05-16T18:47:34;9.27;;;3.73;;
14681;SDS011;7429;52.498;13.480;2023-05-16T18:50:42;11.73;;;3.50;;
14681;SDS011;7429;52.498;13.480;2023-05-16T18:53:55;7.30;;;3.00;;
14681;SDS011;7429;52.498;13.480;2023-05-16T18:57:07;10.73;;;3.63;;
14681;SDS011;7429;52.498;13.480;2023-05-16T19:00:19;5.83;;;3.13;;
14681;SDS011;7429;52.498;13.480;2023-05-16T19:03:49;6.90;;;3.30;;
14681;SDS011;7429;52.498;13.480;2023-05-16T19:06:53;14.07;;;3.13;;
14681;SDS011;7429;52.498;13.480;2023-05-16T19:09:56;4.97;;;2.50;;
14681;SDS011;7429;52.498;13.480;2023-05-16T19:13:06;11.77;;;3.00;;
14681;SDS011;7429;52.498;13.480;2023-05-16T19:16:10;16.70;;;3.90;;